createdAt,value
2022-10-03T00:00:11.735Z,102434.72
2022-10-03T00:02:50.861Z,102447.84
2022-10-03T00:05:57.277Z,102446.88
2022-10-03T00:08:49.792Z,102450.03
2022-10-03T00:11:25.320Z,102454.41
2022-10-03T00:14:19.873Z,102455.06
2022-10-03T00:17:04.559Z,102460.94
2022-10-03T00:19:52.574Z,102460.63
2022-10-03T00:22:43.750Z,102463.16
2022-10-03T00:25:45.151Z,102476.81
2022-10-03T00:28:35.093Z,102475.81
2022-10-03T00:31:13.980Z,102481.06
2022-10-03T00:33:55.901Z,102480.94
2022-10-03T00:36:47.990Z,102481.41
2022-10-03T00:39:50.756Z,102482.84
2022-10-03T00:42:37.017Z,102486.72
2022-10-03T00:45:42.168Z,102477.06
2022-10-03T00:48:26.840Z,102470.75
2022-10-03T00:51:28.001Z,102480.25
2022-10-03T00:54:18.395Z,102481.97
2022-10-03T00:56:56.393Z,102486.41
2022-10-03T01:00:01.168Z,102493.28
2022-10-03T01:02:33.195Z,102501.59
2022-10-03T01:05:27.626Z,102497.88
2022-10-03T01:08:13.077Z,102497.88
2022-10-03T01:11:05.265Z,102505.44
2022-10-03T01:13:58.549Z,102509.94
2022-10-03T01:16:48.410Z,102511.59
2022-10-03T01:19:23.699Z,102508.84
2022-10-03T01:22:29.061Z,102512.06
2022-10-03T01:25:13.938Z,102513.69
2022-10-03T01:28:05.524Z,102518.66
2022-10-03T01:30:48.139Z,102517.69
2022-10-03T01:33:27.746Z,102510.31
2022-10-03T01:36:08.429Z,102512.03
2022-10-03T01:39:00.318Z,102496.84
2022-10-03T01:42:03.057Z,102510.88
2022-10-03T01:45:01.370Z,102513.13
2022-10-03T01:47:34.997Z,102523.19
2022-10-03T01:50:48.534Z,102513.66
2022-10-03T01:53:33.175Z,102511.00
2022-10-03T01:56:12.529Z,102519.72
2022-10-03T01:58:54.932Z,102524.56
2022-10-03T02:01:31.426Z,102525.44
2022-10-03T02:04:32.571Z,102510.50
2022-10-03T02:07:17.927Z,102530.50
2022-10-03T02:10:00.443Z,102532.81
2022-10-03T02:12:35.110Z,102536.06
2022-10-03T02:15:24.977Z,102532.16
2022-10-03T02:18:16.002Z,102526.19
2022-10-03T02:20:57.818Z,102524.41
2022-10-03T02:23:39.599Z,102523.44
2022-10-03T02:26:45.010Z,102531.97
2022-10-03T02:29:36.157Z,102531.66
2022-10-03T02:32:21.774Z,102531.31
2022-10-03T02:35:26.310Z,102523.84
2022-10-03T02:37:58.985Z,102519.47
2022-10-03T02:40:50.933Z,102524.91
2022-10-03T02:43:55.537Z,102524.66
2022-10-03T02:46:38.357Z,102521.28
2022-10-03T02:49:37.226Z,102524.59
2022-10-03T02:52:26.653Z,102522.25
2022-10-03T02:55:05.132Z,102516.22
2022-10-03T02:58:05.524Z,102520.66
2022-10-03T03:00:48.347Z,102517.66
2022-10-03T03:03:43.264Z,102531.44
2022-10-03T03:06:41.149Z,102532.06
2022-10-03T03:09:33.244Z,102532.38
2022-10-03T03:12:27.837Z,102535.09
2022-10-03T03:15:45.690Z,102539.00
2022-10-03T03:18:20.677Z,102531.56
2022-10-03T03:21:15.181Z,102539.31
2022-10-03T03:24:00.869Z,102551.38
2022-10-03T03:26:37.190Z,102554.94
2022-10-03T03:29:22.828Z,102553.00
2022-10-03T03:32:13.583Z,102552.19
2022-10-03T03:35:04.656Z,102553.59
2022-10-03T03:37:39.993Z,102556.63
2022-10-03T03:40:38.834Z,102549.97
2022-10-03T03:43:08.737Z,102549.53
2022-10-03T03:45:41.145Z,102556.22
2022-10-03T03:48:26.239Z,102533.53
2022-10-03T03:51:23.538Z,102545.78
2022-10-03T03:54:08.059Z,102553.63
2022-10-03T03:57:05.624Z,102553.25
2022-10-03T04:00:02.548Z,102548.09
2022-10-03T04:02:32.357Z,102545.78
2022-10-03T04:05:15.246Z,102546.16
2022-10-03T04:07:50.321Z,102556.13
2022-10-03T04:10:20.090Z,102550.06
2022-10-03T04:13:05.925Z,102538.88
2022-10-03T04:16:02.920Z,102549.09
2022-10-03T04:18:59.102Z,102541.63
2022-10-03T04:21:45.579Z,102548.22
2022-10-03T04:24:34.506Z,102557.59
2022-10-03T04:27:13.814Z,102551.84
2022-10-03T04:29:40.759Z,102553.97
2022-10-03T04:32:23.134Z,102563.91
2022-10-03T04:35:10.140Z,102566.47
2022-10-03T04:37:49.721Z,102567.28
2022-10-03T04:40:45.026Z,102565.22
2022-10-03T04:43:24.314Z,102569.22
2022-10-03T04:45:51.446Z,102578.09
2022-10-03T04:48:40.146Z,102579.16
2022-10-03T04:51:41.884Z,102577.22
2022-10-03T04:54:25.967Z,102576.59
2022-10-03T04:57:19.544Z,102580.94
2022-10-03T04:59:59.587Z,102580.66
2022-10-03T05:02:41.540Z,102576.22
2022-10-03T05:05:21.232Z,102572.94
2022-10-03T05:07:53.434Z,102576.88
2022-10-03T05:10:26.581Z,102578.72
2022-10-03T05:13:11.979Z,102576.06
2022-10-03T05:16:02.438Z,102582.66
2022-10-03T05:18:41.907Z,102579.59
2022-10-03T05:21:32.359Z,102580.38
2022-10-03T05:24:26.705Z,102592.59
2022-10-03T05:27:04.059Z,102594.44
2022-10-03T05:30:07.072Z,102579.00
2022-10-03T05:32:39.364Z,102585.53
2022-10-03T05:35:27.273Z,102583.88
2022-10-03T05:38:32.248Z,102592.31
2022-10-03T05:40:59.205Z,102597.25
2022-10-03T05:43:47.824Z,102592.09
2022-10-03T05:46:36.141Z,102599.03
2022-10-03T05:49:16.652Z,102599.75
2022-10-03T05:52:00.150Z,102608.25
2022-10-03T05:54:40.510Z,102603.47
2022-10-03T05:57:24.104Z,102603.75
2022-10-03T06:00:19.940Z,102599.03
2022-10-03T06:03:12.153Z,102603.97
2022-10-03T06:06:08.921Z,102603.41
2022-10-03T06:08:51.004Z,102603.47
2022-10-03T06:11:42.092Z,102611.28
2022-10-03T06:14:30.404Z,102602.75
2022-10-03T06:17:29.000Z,102600.97
2022-10-03T06:19:55.921Z,102606.63
2022-10-03T06:22:45.675Z,102612.03
2022-10-03T06:25:45.616Z,102618.44
2022-10-03T06:28:24.477Z,102620.50
2022-10-03T06:31:03.343Z,102613.94
2022-10-03T06:33:49.023Z,102618.47
2022-10-03T06:36:18.588Z,102628.25
2022-10-03T06:39:23.205Z,102622.75
2022-10-03T06:42:07.145Z,102623.91
2022-10-03T06:44:55.130Z,102624.88
2022-10-03T06:47:40.566Z,102617.63
2022-10-03T06:50:36.234Z,102626.78
2022-10-03T06:53:24.699Z,102627.31
2022-10-03T06:56:40.564Z,102623.03
2022-10-03T06:59:36.074Z,102625.31
2022-10-03T07:02:21.460Z,102629.06
2022-10-03T07:05:01.630Z,102629.53
2022-10-03T07:08:06.079Z,102626.69
2022-10-03T07:10:53.645Z,102631.75
2022-10-03T07:13:32.647Z,102633.31
2022-10-03T07:16:26.381Z,102629.97
2022-10-03T07:19:26.180Z,102621.31
2022-10-03T07:22:14.424Z,102629.50
2022-10-03T07:24:59.930Z,102634.84
2022-10-03T07:27:50.776Z,102631.13
2022-10-03T07:30:54.061Z,102633.25
2022-10-03T07:33:52.565Z,102627.34
2022-10-03T07:36:48.181Z,102641.47
2022-10-03T07:39:39.807Z,102639.69
2022-10-03T07:42:47.586Z,102633.28
2022-10-03T07:45:36.111Z,102638.53
2022-10-03T07:48:24.385Z,102648.19
2022-10-03T07:51:09.495Z,102638.31
2022-10-03T07:54:13.892Z,102655.25
2022-10-03T07:56:53.034Z,102647.84
2022-10-03T07:59:45.175Z,102643.63
2022-10-03T08:02:50.557Z,102633.97
2022-10-03T08:05:25.084Z,102631.84
2022-10-03T08:08:09.333Z,102641.34
2022-10-03T08:11:14.745Z,102635.56
2022-10-03T08:14:14.062Z,102651.28
2022-10-03T08:17:02.757Z,102649.66
2022-10-03T08:19:48.129Z,102656.84
2022-10-03T08:22:29.986Z,102645.56
2022-10-03T08:25:27.100Z,102664.84
2022-10-03T08:28:25.391Z,102668.19
2022-10-03T08:31:04.851Z,102657.78
2022-10-03T08:33:50.454Z,102662.28
2022-10-03T08:36:36.290Z,102663.25
2022-10-03T08:39:16.402Z,102670.50
2022-10-03T08:41:46.325Z,102663.69
2022-10-03T08:44:35.157Z,102665.56
2022-10-03T08:47:11.286Z,102672.78
2022-10-03T08:50:06.036Z,102670.69
2022-10-03T08:52:54.763Z,102664.16
2022-10-03T08:55:33.751Z,102670.69
2022-10-03T08:58:19.256Z,102675.53
2022-10-03T09:01:23.543Z,102669.78
2022-10-03T09:04:39.260Z,102679.00
2022-10-03T09:07:31.247Z,102679.28
2022-10-03T09:10:42.705Z,102676.31
2022-10-03T09:13:41.743Z,102671.63
2022-10-03T09:16:30.267Z,102679.78
2022-10-03T09:19:12.231Z,102676.06
2022-10-03T09:22:03.897Z,102676.34
2022-10-03T09:25:02.097Z,102671.25
2022-10-03T09:27:47.537Z,102668.66
2022-10-03T09:30:42.252Z,102668.78
2022-10-03T09:33:31.614Z,102666.19
2022-10-03T09:36:16.494Z,102668.78
2022-10-03T09:39:04.238Z,102672.25
2022-10-03T09:42:22.277Z,102668.06
2022-10-03T09:45:13.452Z,102679.72
2022-10-03T09:47:40.457Z,102670.28
2022-10-03T09:50:22.295Z,102669.28
2022-10-03T09:53:19.969Z,102662.44
2022-10-03T09:56:23.341Z,102669.34
2022-10-03T09:59:27.852Z,102664.44
2022-10-03T10:01:54.799Z,102666.22
2022-10-03T10:04:54.711Z,102669.78
2022-10-03T10:07:48.478Z,102660.72
2022-10-03T10:10:37.194Z,102662.66
2022-10-03T10:14:05.871Z,102658.56
2022-10-03T10:16:31.935Z,102661.97
2022-10-03T10:19:53.425Z,102670.22
2022-10-03T10:22:41.944Z,102662.72
2022-10-03T10:25:24.730Z,102662.88
2022-10-03T10:28:07.371Z,102666.19
2022-10-03T10:31:08.402Z,102669.72
2022-10-03T10:33:53.854Z,102672.38
2022-10-03T10:36:45.331Z,102669.53
2022-10-03T10:39:17.874Z,102675.88
2022-10-03T10:42:32.685Z,102665.56
2022-10-03T10:45:33.364Z,102664.19
2022-10-03T10:48:51.129Z,102664.88
2022-10-03T10:51:40.783Z,102659.75
2022-10-03T10:54:38.010Z,102662.34
2022-10-03T10:57:43.799Z,102666.06
2022-10-03T11:00:54.068Z,102673.25
2022-10-03T11:03:39.441Z,102669.25
2022-10-03T11:06:34.215Z,102666.88
2022-10-03T11:09:23.167Z,102670.25
2022-10-03T11:11:55.960Z,102673.50
2022-10-03T11:14:59.204Z,102660.81
2022-10-03T11:18:03.977Z,102661.88
2022-10-03T11:20:55.395Z,102657.84
2022-10-03T11:23:57.749Z,102653.22
2022-10-03T11:26:33.957Z,102656.34
2022-10-03T11:29:23.059Z,102658.38
2022-10-03T11:32:09.553Z,102657.50
2022-10-03T11:34:56.065Z,102653.47
2022-10-03T11:37:32.649Z,102667.72
2022-10-03T11:40:33.640Z,102651.03
2022-10-03T11:43:22.519Z,102648.91
2022-10-03T11:46:07.342Z,102643.06
2022-10-03T11:49:13.505Z,102641.19
2022-10-03T11:51:53.405Z,102649.41
2022-10-03T11:54:32.263Z,102653.81
2022-10-03T11:57:31.262Z,102650.63
2022-10-03T12:00:21.098Z,102650.41
2022-10-03T12:03:11.101Z,102647.19
2022-10-03T12:06:13.883Z,102644.72
2022-10-03T12:08:55.597Z,102640.66
2022-10-03T12:11:35.155Z,102634.69
2022-10-03T12:14:11.626Z,102632.84
2022-10-03T12:16:57.325Z,102631.00
2022-10-03T12:19:36.525Z,102622.50
2022-10-03T12:22:19.831Z,102625.84
2022-10-03T12:24:50.064Z,102631.00
2022-10-03T12:27:47.565Z,102627.50
2022-10-03T12:30:18.080Z,102626.84
2022-10-03T12:33:04.181Z,102634.06
2022-10-03T12:35:57.732Z,102624.44
2022-10-03T12:38:35.331Z,102621.97
2022-10-03T12:41:33.675Z,102628.09
2022-10-03T12:44:27.513Z,102612.38
2022-10-03T12:47:05.557Z,102615.78
2022-10-03T12:49:51.309Z,102609.06
2022-10-03T12:52:23.813Z,102602.22
2022-10-03T12:54:56.522Z,102603.13
2022-10-03T12:57:29.439Z,102606.34
2022-10-03T13:00:02.294Z,102599.34
2022-10-03T13:02:49.801Z,102598.09
2022-10-03T13:05:42.193Z,102599.03
2022-10-03T13:08:30.530Z,102598.31
2022-10-03T13:11:25.842Z,102601.88
2022-10-03T13:14:21.946Z,102602.09
2022-10-03T13:17:26.228Z,102598.53
2022-10-03T13:20:03.434Z,102602.88
2022-10-03T13:22:53.376Z,102593.06
2022-10-03T13:25:45.269Z,102596.38
2022-10-03T13:29:00.249Z,102601.47
2022-10-03T13:31:30.978Z,102590.16
2022-10-03T13:34:13.609Z,102590.97
2022-10-03T13:36:51.062Z,102583.94
2022-10-03T13:39:40.391Z,102586.00
2022-10-03T13:42:19.414Z,102588.19
2022-10-03T13:44:55.474Z,102575.31
2022-10-03T13:47:48.192Z,102581.03
2022-10-03T13:50:58.731Z,102575.03
2022-10-03T13:53:47.723Z,102578.53
2022-10-03T13:56:25.265Z,102575.03
2022-10-03T13:59:05.345Z,102576.72
2022-10-03T14:01:46.609Z,102581.47
2022-10-03T14:04:42.324Z,102586.53
2022-10-03T14:07:42.195Z,102579.34
2022-10-03T14:10:41.975Z,102577.44
2022-10-03T14:13:20.469Z,102574.97
2022-10-03T14:15:50.333Z,102567.97
2022-10-03T14:18:49.250Z,102568.06
2022-10-03T14:21:35.677Z,102556.75
2022-10-03T14:24:24.514Z,102560.91
2022-10-03T14:27:03.920Z,102553.22
2022-10-03T14:30:07.207Z,102556.28
2022-10-03T14:32:48.555Z,102555.88
2022-10-03T14:35:53.096Z,102550.41
2022-10-03T14:38:58.000Z,102557.94
2022-10-03T14:41:39.173Z,102557.75
2022-10-03T14:44:29.006Z,102554.25
2022-10-03T14:47:02.176Z,102553.03
2022-10-03T14:49:53.706Z,102547.97
2022-10-03T14:52:26.907Z,102547.69
2022-10-03T14:54:58.268Z,102546.69
2022-10-03T14:58:08.893Z,102553.03
2022-10-03T15:00:47.715Z,102543.44
2022-10-03T15:03:17.483Z,102543.66
2022-10-03T15:06:02.782Z,102536.97
2022-10-03T15:08:43.192Z,102539.75
2022-10-03T15:11:13.907Z,102540.34
2022-10-03T15:13:46.947Z,102524.00
2022-10-03T15:16:18.434Z,102528.34
2022-10-03T15:18:56.365Z,102525.66
2022-10-03T15:21:26.136Z,102508.16
2022-10-03T15:24:06.552Z,102523.03
2022-10-03T15:26:36.372Z,102521.09
2022-10-03T15:29:12.844Z,102513.25
2022-10-03T15:31:45.721Z,102512.25
2022-10-03T15:34:38.630Z,102515.66
2022-10-03T15:37:17.522Z,102511.97
2022-10-03T15:39:48.019Z,102508.13
2022-10-03T15:42:23.126Z,102504.59
2022-10-03T15:44:56.551Z,102507.94
2022-10-03T15:47:33.938Z,102510.56
2022-10-03T15:50:23.188Z,102506.16
2022-10-03T15:52:53.829Z,102502.03
2022-10-03T15:55:26.862Z,102500.28
2022-10-03T15:58:00.518Z,102498.56
2022-10-03T16:00:32.588Z,102495.84
2022-10-03T16:03:16.781Z,102501.03
2022-10-03T16:05:56.904Z,102493.16
2022-10-03T16:08:29.258Z,102491.25
2022-10-03T16:11:07.995Z,102487.88
2022-10-03T16:13:38.911Z,102486.22
2022-10-03T16:16:47.633Z,102483.75
2022-10-03T16:19:29.302Z,102485.69
2022-10-03T16:22:17.878Z,102479.75
2022-10-03T16:25:11.117Z,102485.59
2022-10-03T16:28:05.187Z,102473.06
2022-10-03T16:30:38.791Z,102480.75
2022-10-03T16:33:25.516Z,102478.72
2022-10-03T16:36:02.342Z,102481.00
2022-10-03T16:38:35.701Z,102469.16
2022-10-03T16:41:17.336Z,102469.69
2022-10-03T16:44:00.111Z,102471.19
2022-10-03T16:46:32.459Z,102468.06
2022-10-03T16:49:22.360Z,102469.63
2022-10-03T16:52:03.047Z,102463.13
2022-10-03T16:54:33.361Z,102466.41
2022-10-03T16:57:05.550Z,102462.03
2022-10-03T16:59:34.409Z,102453.94
2022-10-03T17:02:13.916Z,102456.22
2022-10-03T17:04:47.643Z,102468.28
2022-10-03T17:07:30.752Z,102464.69
2022-10-03T17:10:00.785Z,102457.41
2022-10-03T17:12:39.613Z,102447.44
2022-10-03T17:15:22.484Z,102469.97
2022-10-03T17:18:10.268Z,102462.81
2022-10-03T17:20:48.146Z,102455.75
2022-10-03T17:23:17.982Z,102457.38
2022-10-03T17:26:21.239Z,102458.88
2022-10-03T17:28:51.019Z,102444.97
2022-10-03T17:31:28.701Z,102446.53
2022-10-03T17:34:11.617Z,102444.59
2022-10-03T17:37:04.455Z,102433.91
2022-10-03T17:40:01.239Z,102449.44
2022-10-03T17:42:31.947Z,102452.03
2022-10-03T17:45:38.805Z,102456.28
2022-10-03T17:48:18.734Z,102457.88
2022-10-03T17:51:07.207Z,102465.50
2022-10-03T17:53:37.206Z,102442.59
2022-10-03T17:56:13.114Z,102449.72
2022-10-03T17:58:45.441Z,102452.09
2022-10-03T18:01:17.206Z,102450.88
2022-10-03T18:03:56.560Z,102444.31
2022-10-03T18:06:29.734Z,102446.75
2022-10-03T18:08:58.227Z,102439.47
2022-10-03T18:11:29.087Z,102434.16
2022-10-03T18:14:25.677Z,102442.56
2022-10-03T18:17:01.499Z,102432.00
2022-10-03T18:19:40.464Z,102439.69
2022-10-03T18:22:22.478Z,102447.28
2022-10-03T18:25:37.344Z,102449.75
2022-10-03T18:28:34.726Z,102450.47
2022-10-03T18:31:19.263Z,102452.25
2022-10-03T18:33:54.892Z,102444.28
2022-10-03T18:36:31.628Z,102430.97
2022-10-03T18:39:10.504Z,102436.13
2022-10-03T18:41:45.136Z,102442.16
2022-10-03T18:44:17.783Z,102421.19
2022-10-03T18:46:55.143Z,102429.78
2022-10-03T18:49:34.319Z,102413.97
2022-10-03T18:52:10.509Z,102418.28
2022-10-03T18:55:03.670Z,102414.59
2022-10-03T18:57:51.079Z,102421.53
2022-10-03T19:00:21.375Z,102421.59
2022-10-03T19:02:58.829Z,102412.84
2022-10-03T19:05:32.813Z,102415.34
2022-10-03T19:08:13.185Z,102410.97
2022-10-03T19:10:48.190Z,102406.63
2022-10-03T19:13:25.061Z,102414.50
2022-10-03T19:16:16.615Z,102403.25
2022-10-03T19:19:09.228Z,102411.25
2022-10-03T19:21:40.390Z,102406.06
2022-10-03T19:24:14.819Z,102406.06
2022-10-03T19:26:48.642Z,102406.13
2022-10-03T19:29:21.173Z,102400.91
2022-10-03T19:31:50.737Z,102406.13
2022-10-03T19:34:32.167Z,102407.94
2022-10-03T19:37:00.425Z,102401.81
2022-10-03T19:39:30.956Z,102404.47
2022-10-03T19:42:27.947Z,102401.13
2022-10-03T19:44:57.260Z,102402.09
2022-10-03T19:47:41.074Z,102398.69
2022-10-03T19:50:20.472Z,102399.47
2022-10-03T19:52:49.283Z,102396.00
2022-10-03T19:55:38.908Z,102394.34
2022-10-03T19:58:08.567Z,102392.66
2022-10-03T20:00:40.275Z,102396.19
2022-10-03T20:03:36.956Z,102393.75
2022-10-03T20:06:18.574Z,102397.06
2022-10-03T20:08:52.433Z,102403.25
2022-10-03T20:11:22.481Z,102403.25
2022-10-03T20:13:50.064Z,102405.78
2022-10-03T20:16:20.501Z,102403.97
2022-10-03T20:18:52.122Z,102395.94
2022-10-03T20:21:29.382Z,102408.22
2022-10-03T20:23:58.118Z,102405.63
2022-10-03T20:26:46.642Z,102409.81
2022-10-03T20:29:27.569Z,102399.44
2022-10-03T20:32:03.147Z,102399.41
2022-10-03T20:34:32.959Z,102410.53
2022-10-03T20:37:39.567Z,102413.91
2022-10-03T20:40:38.075Z,102419.88
2022-10-03T20:43:41.294Z,102420.69
2022-10-03T20:46:29.060Z,102405.63
2022-10-03T20:49:16.136Z,102408.22
2022-10-03T20:52:05.142Z,102412.31
2022-10-03T20:54:55.180Z,102400.03
2022-10-03T20:57:24.870Z,102399.16
2022-10-03T20:59:55.991Z,102401.03
2022-10-03T21:02:38.105Z,102399.09
2022-10-03T21:05:17.256Z,102383.09
2022-10-03T21:07:52.597Z,102393.34
2022-10-03T21:10:39.914Z,102384.63
2022-10-03T21:13:13.278Z,102386.31
2022-10-03T21:15:46.910Z,102393.31
2022-10-03T21:18:27.233Z,102394.09
2022-10-03T21:21:01.051Z,102387.03
2022-10-03T21:23:28.324Z,102389.72
2022-10-03T21:25:58.852Z,102385.13
2022-10-03T21:28:30.395Z,102386.91
2022-10-03T21:31:18.411Z,102382.63
2022-10-03T21:33:57.830Z,102379.75
2022-10-03T21:36:46.897Z,102377.03
2022-10-03T21:39:32.615Z,102375.16
2022-10-03T21:42:28.144Z,102366.66
2022-10-03T21:45:03.080Z,102377.13
2022-10-03T21:47:50.032Z,102369.34
2022-10-03T21:50:27.833Z,102366.06
2022-10-03T21:53:02.835Z,102365.16
2022-10-03T21:55:51.615Z,102351.41
2022-10-03T21:58:26.746Z,102357.47
2022-10-03T22:01:02.801Z,102358.38
2022-10-03T22:03:35.692Z,102359.41
2022-10-03T22:06:13.644Z,102350.97
2022-10-03T22:08:44.392Z,102344.22
2022-10-03T22:11:14.081Z,102337.28
2022-10-03T22:13:45.384Z,102326.84
2022-10-03T22:16:30.996Z,102334.63
2022-10-03T22:19:59.647Z,102325.19
2022-10-03T22:22:45.211Z,102323.53
2022-10-03T22:25:25.836Z,102315.75
2022-10-03T22:28:23.876Z,102311.50
2022-10-03T22:31:03.395Z,102314.09
2022-10-03T22:33:53.030Z,102308.91
2022-10-03T22:36:20.278Z,102302.00
2022-10-03T22:38:49.664Z,102289.78
2022-10-03T22:41:24.061Z,102292.34
2022-10-03T22:43:53.912Z,102291.59
2022-10-03T22:46:29.213Z,102293.34
2022-10-03T22:49:08.205Z,102286.34
2022-10-03T22:51:38.197Z,102299.41
2022-10-03T22:54:14.338Z,102291.53
2022-10-03T22:56:46.971Z,102295.09
2022-10-03T22:59:22.400Z,102292.50
2022-10-03T23:01:52.416Z,102284.59
2022-10-03T23:04:31.727Z,102290.75
2022-10-03T23:07:19.631Z,102288.94
2022-10-03T23:10:24.968Z,102291.47
2022-10-03T23:13:08.990Z,102280.97
2022-10-03T23:15:39.179Z,102295.88
2022-10-03T23:18:31.311Z,102295.06
2022-10-03T23:20:58.240Z,102294.97
2022-10-03T23:23:59.739Z,102294.97
2022-10-03T23:26:42.553Z,102282.97
2022-10-03T23:29:15.517Z,102285.50
2022-10-03T23:32:03.293Z,102276.16
2022-10-03T23:34:36.374Z,102280.44
2022-10-03T23:37:15.817Z,102281.19
2022-10-03T23:39:54.021Z,102279.41
2022-10-03T23:42:25.048Z,102278.50
2022-10-03T23:44:58.087Z,102280.19
2022-10-03T23:47:32.616Z,102272.38
2022-10-03T23:50:02.393Z,102267.19
2022-10-03T23:52:44.098Z,102261.09
2022-10-03T23:55:22.502Z,102263.75
2022-10-03T23:57:49.627Z,102267.28
